createdAt,value
2023-01-12T00:02:10.387Z,70.92
2023-01-12T00:04:38.257Z,70.97
2023-01-12T00:07:06.887Z,71.49
2023-01-12T00:09:34.599Z,71.02
2023-01-12T00:12:03.743Z,71.47
2023-01-12T00:14:31.091Z,71.38
2023-01-12T00:16:59.799Z,71.68
2023-01-12T00:19:27.467Z,71.44
2023-01-12T00:21:57.364Z,71.33
2023-01-12T00:24:26.214Z,71.60
2023-01-12T00:26:54.806Z,71.68
2023-01-12T00:29:23.092Z,71.74
2023-01-12T00:31:50.372Z,71.86
2023-01-12T00:34:19.358Z,71.59
2023-01-12T00:36:48.005Z,71.62
2023-01-12T00:39:16.229Z,71.60
2023-01-12T00:42:03.830Z,71.38
2023-01-12T00:44:50.157Z,71.89
2023-01-12T00:47:18.336Z,72.11
2023-01-12T00:49:47.455Z,71.99
2023-01-12T00:52:29.394Z,71.80
2023-01-12T00:54:58.570Z,71.75
2023-01-12T00:57:26.509Z,71.95
2023-01-12T00:59:58.361Z,71.75
2023-01-12T01:02:26.581Z,72.41
2023-01-12T01:04:55.804Z,72.25
2023-01-12T01:07:23.644Z,72.57
2023-01-12T01:09:51.616Z,72.09
2023-01-12T01:12:19.550Z,72.04
2023-01-12T01:14:47.355Z,72.13
2023-01-12T01:17:14.995Z,72.17
2023-01-12T01:19:43.787Z,72.52
2023-01-12T01:22:13.262Z,72.17
2023-01-12T01:24:41.727Z,72.35
2023-01-12T01:27:09.026Z,72.13
2023-01-12T01:29:36.782Z,72.71
2023-01-12T01:32:04.294Z,72.11
2023-01-12T01:34:50.086Z,72.72
2023-01-12T01:37:20.200Z,72.72
2023-01-12T01:39:47.464Z,72.65
2023-01-12T01:42:28.450Z,72.87
2023-01-12T01:44:58.854Z,72.71
2023-01-12T01:47:35.254Z,72.65
2023-01-12T01:50:07.767Z,72.48
2023-01-12T01:52:40.002Z,72.65
2023-01-12T01:55:11.374Z,72.57
2023-01-12T01:57:46.825Z,73.24
2023-01-12T02:00:15.101Z,72.92
2023-01-12T02:02:46.512Z,72.82
2023-01-12T02:05:16.318Z,73.12
2023-01-12T02:07:45.178Z,72.77
2023-01-12T02:10:12.644Z,72.75
2023-01-12T02:12:59.331Z,72.99
2023-01-12T02:15:47.492Z,73.37
2023-01-12T02:18:22.205Z,72.80
2023-01-12T02:21:01.601Z,73.58
2023-01-12T02:24:17.365Z,72.89
2023-01-12T02:27:23.510Z,72.93
2023-01-12T02:30:24.255Z,73.50
2023-01-12T02:33:02.962Z,73.50
2023-01-12T02:35:36.952Z,73.01
2023-01-12T02:38:15.465Z,73.71
2023-01-12T02:40:49.052Z,73.52
2023-01-12T02:43:21.774Z,73.90
2023-01-12T02:45:55.158Z,73.36
2023-01-12T02:48:29.039Z,73.40
2023-01-12T02:51:01.615Z,73.70
2023-01-12T02:53:33.279Z,73.75
2023-01-12T02:56:04.042Z,73.25
2023-01-12T02:58:35.868Z,73.54
2023-01-12T03:01:04.815Z,73.80
2023-01-12T03:03:35.257Z,73.87
2023-01-12T03:06:02.598Z,73.95
2023-01-12T03:08:32.542Z,73.48
2023-01-12T03:11:21.958Z,73.58
2023-01-12T03:13:51.320Z,73.88
2023-01-12T03:16:21.821Z,73.71
2023-01-12T03:18:54.631Z,74.01
2023-01-12T03:21:28.650Z,73.72
2023-01-12T03:24:00.927Z,73.94
2023-01-12T03:26:31.313Z,73.86
2023-01-12T03:29:04.177Z,73.72
2023-01-12T03:31:32.738Z,73.95
2023-01-12T03:34:02.076Z,74.07
2023-01-12T03:36:40.869Z,73.74
2023-01-12T03:39:16.855Z,74.08
2023-01-12T03:41:55.021Z,73.59
2023-01-12T03:44:30.956Z,74.13
2023-01-12T03:47:02.191Z,73.61
2023-01-12T03:49:35.118Z,74.02
2023-01-12T03:52:06.088Z,73.97
2023-01-12T03:54:37.616Z,73.63
2023-01-12T03:57:06.660Z,73.98
2023-01-12T03:59:35.287Z,74.01
2023-01-12T04:02:03.452Z,74.22
2023-01-12T04:04:32.388Z,74.28
2023-01-12T04:07:01.747Z,74.22
2023-01-12T04:09:29.339Z,74.14
2023-01-12T04:12:11.641Z,74.26
2023-01-12T04:14:39.851Z,74.00
2023-01-12T04:17:08.441Z,73.98
2023-01-12T04:19:37.259Z,74.34
2023-01-12T04:22:23.326Z,74.54
2023-01-12T04:24:50.567Z,73.93
2023-01-12T04:27:18.485Z,74.33
2023-01-12T04:29:45.843Z,74.10
2023-01-12T04:32:13.251Z,73.95
2023-01-12T04:34:41.911Z,74.19
2023-01-12T04:37:09.322Z,74.57
2023-01-12T04:39:36.588Z,74.43
2023-01-12T04:42:04.876Z,74.47
2023-01-12T04:44:32.543Z,74.60
2023-01-12T04:46:59.756Z,74.30
2023-01-12T04:49:27.268Z,74.19
2023-01-12T04:51:55.875Z,74.58
2023-01-12T04:54:23.239Z,74.77
2023-01-12T04:56:50.760Z,74.19
2023-01-12T04:59:18.413Z,74.71
2023-01-12T05:01:45.864Z,74.66
2023-01-12T05:04:15.117Z,74.65
2023-01-12T05:06:42.418Z,74.38
2023-01-12T05:09:30.086Z,74.74
2023-01-12T05:11:59.912Z,74.53
2023-01-12T05:14:27.428Z,74.69
2023-01-12T05:16:55.032Z,74.82
2023-01-12T05:19:22.310Z,74.34
2023-01-12T05:21:49.539Z,74.42
2023-01-12T05:24:18.808Z,74.50
2023-01-12T05:26:46.168Z,74.43
2023-01-12T05:29:13.634Z,74.53
2023-01-12T05:31:40.967Z,74.61
2023-01-12T05:34:08.311Z,74.21
2023-01-12T05:36:35.576Z,74.23
2023-01-12T05:39:04.959Z,74.37
2023-01-12T05:41:33.972Z,74.54
2023-01-12T05:44:01.343Z,74.50
2023-01-12T05:46:31.092Z,74.70
2023-01-12T05:48:59.151Z,74.40
2023-01-12T05:51:27.360Z,74.37
2023-01-12T05:53:55.263Z,74.79
2023-01-12T05:56:25.978Z,74.52
2023-01-12T05:58:56.085Z,74.56
2023-01-12T06:01:23.905Z,74.51
2023-01-12T06:03:52.536Z,74.32
2023-01-12T06:06:21.614Z,74.33
2023-01-12T06:08:52.173Z,74.50
2023-01-12T06:11:38.509Z,74.80
2023-01-12T06:14:08.599Z,74.48
2023-01-12T06:16:38.502Z,74.70
2023-01-12T06:19:06.095Z,74.52
2023-01-12T06:21:34.152Z,74.70
2023-01-12T06:24:01.876Z,74.86
2023-01-12T06:26:29.468Z,74.72
2023-01-12T06:28:57.161Z,74.77
2023-01-12T06:31:25.841Z,74.98
2023-01-12T06:33:53.249Z,75.12
2023-01-12T06:36:20.501Z,75.18
2023-01-12T06:38:47.859Z,74.96
2023-01-12T06:41:34.012Z,74.72
2023-01-12T06:44:01.558Z,74.90
2023-01-12T06:46:30.788Z,74.69
2023-01-12T06:48:59.334Z,74.96
2023-01-12T06:51:27.602Z,74.62
2023-01-12T06:53:55.315Z,74.71
2023-01-12T06:56:23.366Z,74.68
2023-01-12T06:58:50.733Z,74.74
2023-01-12T07:01:18.696Z,74.68
2023-01-12T07:03:47.785Z,74.70
2023-01-12T07:06:15.213Z,74.35
2023-01-12T07:08:43.537Z,74.70
2023-01-12T07:11:15.222Z,74.29
2023-01-12T07:13:42.713Z,74.34
2023-01-12T07:16:10.160Z,74.75
2023-01-12T07:18:37.463Z,74.42
2023-01-12T07:21:07.327Z,74.65
2023-01-12T07:23:35.090Z,74.78
2023-01-12T07:26:02.597Z,74.90
2023-01-12T07:28:31.605Z,74.38
2023-01-12T07:31:00.916Z,74.92
2023-01-12T07:33:28.305Z,74.83
2023-01-12T07:35:58.828Z,74.69
2023-01-12T07:38:28.702Z,74.34
2023-01-12T07:40:59.144Z,74.89
2023-01-12T07:43:26.822Z,74.63
2023-01-12T07:45:56.275Z,74.91
2023-01-12T07:48:25.187Z,74.99
2023-01-12T07:50:52.712Z,74.97
2023-01-12T07:53:20.427Z,74.66
2023-01-12T07:55:49.037Z,75.08
2023-01-12T07:58:19.273Z,74.72
2023-01-12T08:00:46.488Z,75.03
2023-01-12T08:03:16.995Z,75.00
2023-01-12T08:05:44.585Z,74.66
2023-01-12T08:08:11.986Z,74.90
2023-01-12T08:10:39.538Z,74.98
2023-01-12T08:13:08.390Z,74.50
2023-01-12T08:15:38.687Z,74.35
2023-01-12T08:18:12.557Z,74.36
2023-01-12T08:20:40.656Z,74.42
2023-01-12T08:23:11.697Z,74.36
2023-01-12T08:25:44.954Z,74.89
2023-01-12T08:28:17.864Z,74.82
2023-01-12T08:30:47.642Z,74.43
2023-01-12T08:33:16.159Z,74.67
2023-01-12T08:35:46.501Z,74.07
2023-01-12T08:38:14.001Z,74.60
2023-01-12T08:40:59.745Z,74.67
2023-01-12T08:43:47.599Z,74.25
2023-01-12T08:46:15.231Z,74.29
2023-01-12T08:48:42.744Z,73.80
2023-01-12T08:51:10.064Z,73.80
2023-01-12T08:53:37.509Z,74.27
2023-01-12T08:56:05.469Z,73.70
2023-01-12T08:58:34.153Z,74.11
2023-01-12T09:01:08.806Z,73.62
2023-01-12T09:03:36.458Z,74.22
2023-01-12T09:06:11.543Z,74.20
2023-01-12T09:08:39.200Z,73.72
2023-01-12T09:11:07.039Z,74.37
2023-01-12T09:13:35.975Z,74.46
2023-01-12T09:16:12.161Z,74.31
2023-01-12T09:18:40.977Z,73.80
2023-01-12T09:21:10.199Z,73.72
2023-01-12T09:23:38.340Z,73.67
2023-01-12T09:26:06.888Z,74.17
2023-01-12T09:28:36.794Z,73.59
2023-01-12T09:31:06.789Z,73.20
2023-01-12T09:33:34.867Z,73.75
2023-01-12T09:36:03.884Z,72.98
2023-01-12T09:38:34.895Z,73.25
2023-01-12T09:41:08.652Z,73.14
2023-01-12T09:43:56.492Z,72.75
2023-01-12T09:47:01.729Z,72.47
2023-01-12T09:49:33.457Z,72.00
2023-01-12T09:52:10.381Z,72.14
2023-01-12T09:54:37.774Z,71.87
2023-01-12T09:57:28.778Z,71.84
2023-01-12T10:00:03.497Z,71.70
2023-01-12T10:02:45.611Z,72.07
2023-01-12T10:05:20.489Z,71.99
2023-01-12T10:07:50.353Z,71.39
2023-01-12T10:10:17.875Z,71.38
2023-01-12T10:12:52.319Z,71.63
2023-01-12T10:15:31.376Z,71.30
2023-01-12T10:18:04.183Z,71.19
2023-01-12T10:20:37.526Z,71.46
2023-01-12T10:23:11.583Z,71.54
2023-01-12T10:25:42.267Z,70.92
2023-01-12T10:28:17.261Z,70.64
2023-01-12T10:30:46.395Z,70.93
2023-01-12T10:33:18.932Z,70.29
2023-01-12T10:35:56.105Z,70.27
2023-01-12T10:38:29.864Z,70.06
2023-01-12T10:41:17.345Z,70.24
2023-01-12T10:44:03.679Z,69.82
2023-01-12T10:46:33.897Z,69.84
2023-01-12T10:49:16.682Z,69.52
2023-01-12T10:51:55.148Z,69.44
2023-01-12T10:54:25.887Z,69.06
2023-01-12T10:56:57.547Z,69.42
2023-01-12T10:59:29.465Z,68.61
2023-01-12T11:02:14.094Z,68.66
2023-01-12T11:04:43.968Z,68.36
2023-01-12T11:07:14.120Z,68.30
2023-01-12T11:09:42.909Z,68.14
2023-01-12T11:12:23.744Z,67.82
2023-01-12T11:15:03.189Z,67.41
2023-01-12T11:17:49.921Z,67.74
2023-01-12T11:20:23.650Z,67.65
2023-01-12T11:22:54.787Z,67.42
2023-01-12T11:25:24.634Z,67.31
2023-01-12T11:27:58.766Z,67.53
2023-01-12T11:30:33.223Z,67.41
2023-01-12T11:33:10.619Z,67.70
2023-01-12T11:35:41.919Z,67.60
2023-01-12T11:38:16.130Z,67.45
2023-01-12T11:40:44.392Z,67.13
2023-01-12T11:43:44.461Z,67.04
2023-01-12T11:46:21.237Z,67.36
2023-01-12T11:48:59.502Z,67.01
2023-01-12T11:51:27.658Z,67.17
2023-01-12T11:53:55.516Z,67.26
2023-01-12T11:56:51.002Z,67.27
2023-01-12T11:59:24.696Z,67.23
2023-01-12T12:02:01.863Z,67.22
2023-01-12T12:04:51.487Z,67.31
2023-01-12T12:07:34.888Z,67.18
2023-01-12T12:10:18.783Z,67.53
2023-01-12T12:13:06.820Z,67.55
2023-01-12T12:15:46.097Z,67.23
2023-01-12T12:18:24.648Z,67.38
2023-01-12T12:21:08.566Z,67.50
2023-01-12T12:23:44.319Z,67.08
2023-01-12T12:26:19.011Z,67.44
2023-01-12T12:28:59.907Z,67.82
2023-01-12T12:31:48.971Z,67.92
2023-01-12T12:34:57.606Z,67.91
2023-01-12T12:37:39.430Z,68.00
2023-01-12T12:40:20.764Z,68.23
2023-01-12T12:43:18.080Z,68.78
2023-01-12T12:45:55.320Z,69.02
2023-01-12T12:48:30.519Z,68.95
2023-01-12T12:51:02.894Z,69.24
2023-01-12T12:53:35.799Z,69.50
2023-01-12T12:56:06.035Z,69.56
2023-01-12T12:58:42.169Z,69.57
2023-01-12T13:01:38.539Z,69.67
2023-01-12T13:04:10.752Z,69.85
2023-01-12T13:06:40.838Z,70.34
2023-01-12T13:09:41.179Z,70.61
2023-01-12T13:12:32.639Z,70.69
2023-01-12T13:15:22.559Z,70.70
2023-01-12T13:17:52.927Z,70.92
2023-01-12T13:21:01.442Z,71.06
2023-01-12T13:23:46.865Z,71.30
2023-01-12T13:26:43.555Z,70.97
2023-01-12T13:29:49.026Z,71.27
2023-01-12T13:32:49.742Z,71.43
2023-01-12T13:35:50.461Z,71.97
2023-01-12T13:38:28.673Z,71.73
2023-01-12T13:41:04.745Z,72.25
2023-01-12T13:43:38.906Z,71.88
2023-01-12T13:46:14.587Z,71.95
2023-01-12T13:48:45.809Z,72.33
2023-01-12T13:51:17.225Z,72.76
2023-01-12T13:53:44.604Z,72.58
2023-01-12T13:56:20.035Z,73.01
2023-01-12T13:58:58.257Z,72.81
2023-01-12T14:01:28.685Z,73.26
2023-01-12T14:04:21.751Z,73.09
2023-01-12T14:06:59.281Z,73.03
2023-01-12T14:09:39.585Z,73.43
2023-01-12T14:12:38.441Z,73.32
2023-01-12T14:15:39.688Z,73.90
2023-01-12T14:18:12.023Z,73.88
2023-01-12T14:20:46.256Z,73.93
2023-01-12T14:23:20.007Z,73.76
2023-01-12T14:26:03.346Z,74.05
2023-01-12T14:28:31.714Z,74.45
2023-01-12T14:31:01.156Z,74.81
2023-01-12T14:33:31.928Z,75.00
2023-01-12T14:36:04.622Z,74.73
2023-01-12T14:38:35.276Z,74.79
2023-01-12T14:41:05.947Z,74.79
2023-01-12T14:43:59.050Z,75.21
2023-01-12T14:46:30.772Z,75.23
2023-01-12T14:49:01.200Z,75.47
2023-01-12T14:51:35.321Z,75.46
2023-01-12T14:54:17.648Z,75.63
2023-01-12T14:56:50.518Z,75.25
2023-01-12T14:59:23.565Z,75.72
2023-01-12T15:02:07.495Z,75.54
2023-01-12T15:04:35.133Z,75.54
2023-01-12T15:07:04.802Z,75.35
2023-01-12T15:09:34.187Z,75.73
2023-01-12T15:12:33.609Z,75.87
2023-01-12T15:15:14.966Z,76.39
2023-01-12T15:18:02.548Z,75.76
2023-01-12T15:20:52.281Z,76.17
2023-01-12T15:23:47.601Z,76.31
2023-01-12T15:26:14.952Z,76.18
2023-01-12T15:28:42.417Z,76.72
2023-01-12T15:31:19.360Z,76.75
2023-01-12T15:33:48.484Z,76.91
2023-01-12T15:36:16.112Z,76.99
2023-01-12T15:38:43.718Z,76.89
2023-01-12T15:41:16.834Z,77.00
2023-01-12T15:43:44.355Z,77.26
2023-01-12T15:46:17.899Z,76.92
2023-01-12T15:48:45.467Z,76.94
2023-01-12T15:51:16.059Z,77.23
2023-01-12T15:53:43.581Z,77.32
2023-01-12T15:56:15.438Z,77.72
2023-01-12T15:58:42.712Z,77.86
2023-01-12T16:01:15.384Z,77.33
2023-01-12T16:04:07.244Z,77.60
2023-01-12T16:06:32.607Z,77.90
2023-01-12T16:09:01.138Z,78.12
2023-01-12T16:11:28.478Z,77.66
2023-01-12T16:13:56.006Z,78.00
2023-01-12T16:16:25.178Z,77.94
2023-01-12T16:18:52.770Z,77.97
2023-01-12T16:21:23.280Z,78.25
2023-01-12T16:23:52.292Z,78.00
2023-01-12T16:26:19.525Z,77.91
2023-01-12T16:28:47.134Z,77.89
2023-01-12T16:31:15.295Z,78.42
2023-01-12T16:33:44.083Z,78.10
2023-01-12T16:36:13.190Z,78.75
2023-01-12T16:38:40.970Z,78.33
2023-01-12T16:41:11.679Z,78.85
2023-01-12T16:43:39.230Z,78.09
2023-01-12T16:46:07.108Z,78.76
2023-01-12T16:48:35.364Z,78.71
2023-01-12T16:51:02.700Z,78.92
2023-01-12T16:53:29.971Z,78.56
2023-01-12T16:56:02.680Z,78.83
2023-01-12T16:58:31.621Z,78.96
2023-01-12T17:01:00.535Z,78.71
2023-01-12T17:03:28.355Z,78.45
2023-01-12T17:05:58.515Z,78.37
2023-01-12T17:08:26.190Z,79.11
2023-01-12T17:10:53.494Z,78.80
2023-01-12T17:13:20.982Z,79.09
2023-01-12T17:15:52.365Z,79.29
2023-01-12T17:18:19.876Z,79.19
2023-01-12T17:20:47.437Z,79.33
2023-01-12T17:23:14.906Z,79.44
2023-01-12T17:25:42.186Z,79.22
2023-01-12T17:28:09.482Z,79.36
2023-01-12T17:30:39.566Z,79.32
2023-01-12T17:33:08.319Z,79.43
2023-01-12T17:35:36.096Z,79.32
2023-01-12T17:38:03.819Z,79.04
2023-01-12T17:40:31.903Z,79.04
2023-01-12T17:43:08.273Z,79.70
2023-01-12T17:45:41.979Z,79.89
2023-01-12T17:48:18.189Z,79.83
2023-01-12T17:50:46.183Z,79.42
2023-01-12T17:53:14.653Z,79.89
2023-01-12T17:55:48.595Z,79.78
2023-01-12T17:58:18.705Z,79.92
2023-01-12T18:00:46.257Z,79.84
2023-01-12T18:03:15.024Z,80.20
2023-01-12T18:05:44.594Z,80.12
2023-01-12T18:08:12.508Z,79.35
2023-01-12T18:11:01.554Z,80.02
2023-01-12T18:13:29.022Z,79.57
2023-01-12T18:16:00.443Z,79.66
2023-01-12T18:18:32.097Z,79.92
2023-01-12T18:21:06.589Z,79.62
2023-01-12T18:23:34.693Z,79.67
2023-01-12T18:26:03.076Z,80.27
2023-01-12T18:28:30.549Z,80.00
2023-01-12T18:31:02.520Z,79.97
2023-01-12T18:33:31.197Z,80.38
2023-01-12T18:35:58.719Z,79.79
2023-01-12T18:38:28.918Z,80.02
2023-01-12T18:41:14.700Z,79.87
2023-01-12T18:43:44.112Z,80.18
2023-01-12T18:46:12.522Z,79.66
2023-01-12T18:48:43.588Z,80.11
2023-01-12T18:51:29.579Z,80.21
2023-01-12T18:53:57.131Z,80.20
2023-01-12T18:56:24.994Z,79.99
2023-01-12T18:58:53.057Z,80.21
2023-01-12T19:01:22.488Z,79.67
2023-01-12T19:03:53.084Z,80.30
2023-01-12T19:06:21.680Z,79.75
2023-01-12T19:09:08.096Z,80.02
2023-01-12T19:11:35.785Z,79.85
2023-01-12T19:14:22.543Z,80.21
2023-01-12T19:17:08.126Z,79.87
2023-01-12T19:19:37.297Z,80.03
2023-01-12T19:22:23.338Z,80.20
2023-01-12T19:25:09.481Z,80.37
2023-01-12T19:27:55.499Z,80.20
2023-01-12T19:30:22.829Z,80.16
2023-01-12T19:32:50.099Z,80.00
2023-01-12T19:35:19.149Z,80.49
2023-01-12T19:37:47.370Z,80.52
2023-01-12T19:40:27.532Z,80.56
2023-01-12T19:43:14.472Z,80.61
2023-01-12T19:45:43.130Z,80.39
2023-01-12T19:48:11.393Z,80.62
2023-01-12T19:50:41.117Z,80.68
2023-01-12T19:53:11.652Z,81.04
2023-01-12T19:55:41.478Z,81.15
2023-01-12T19:58:09.490Z,81.06
2023-01-12T20:00:37.856Z,81.09
2023-01-12T20:03:05.354Z,80.64
2023-01-12T20:05:32.859Z,81.32
2023-01-12T20:08:01.654Z,81.31
2023-01-12T20:10:29.137Z,81.29
2023-01-12T20:12:57.480Z,81.13
2023-01-12T20:15:24.898Z,81.31
2023-01-12T20:17:52.401Z,81.55
2023-01-12T20:20:20.308Z,81.51
2023-01-12T20:22:49.921Z,81.40
2023-01-12T20:25:18.880Z,81.03
2023-01-12T20:27:48.336Z,81.22
2023-01-12T20:30:18.172Z,81.57
2023-01-12T20:32:48.649Z,81.89
2023-01-12T20:35:19.030Z,81.81
2023-01-12T20:37:46.380Z,81.70
2023-01-12T20:40:15.108Z,81.43
2023-01-12T20:42:45.226Z,82.00
2023-01-12T20:45:14.083Z,82.02
2023-01-12T20:47:41.836Z,82.01
2023-01-12T20:50:13.763Z,82.12
2023-01-12T20:52:41.525Z,82.07
2023-01-12T20:55:09.149Z,82.08
2023-01-12T20:57:39.019Z,81.61
2023-01-12T21:00:09.620Z,82.20
2023-01-12T21:02:37.323Z,81.93
2023-01-12T21:05:05.436Z,82.23
2023-01-12T21:07:32.766Z,82.52
2023-01-12T21:10:00.666Z,82.36
2023-01-12T21:12:30.864Z,82.24
2023-01-12T21:14:58.092Z,82.80
2023-01-12T21:17:27.053Z,82.14
2023-01-12T21:19:54.487Z,82.93
2023-01-12T21:22:21.826Z,82.56
2023-01-12T21:24:50.529Z,83.00
2023-01-12T21:27:20.033Z,82.96
2023-01-12T21:29:54.949Z,83.10
2023-01-12T21:32:29.821Z,83.16
2023-01-12T21:34:59.761Z,82.58
2023-01-12T21:37:27.069Z,83.48
2023-01-12T21:39:56.503Z,83.49
2023-01-12T21:42:42.604Z,83.12
2023-01-12T21:45:10.372Z,83.58
2023-01-12T21:47:37.634Z,83.12
2023-01-12T21:50:06.888Z,83.53
2023-01-12T21:52:34.729Z,83.13
2023-01-12T21:55:02.151Z,83.37
2023-01-12T21:57:30.829Z,83.23
2023-01-12T21:59:58.041Z,83.36
2023-01-12T22:02:25.684Z,83.40
2023-01-12T22:04:52.901Z,83.46
2023-01-12T22:07:21.645Z,83.60
2023-01-12T22:09:48.851Z,83.29
2023-01-12T22:12:16.162Z,83.97
2023-01-12T22:14:43.549Z,83.99
2023-01-12T22:17:10.845Z,83.81
2023-01-12T22:19:39.490Z,84.00
2023-01-12T22:22:07.071Z,84.04
2023-01-12T22:24:35.805Z,84.15
2023-01-12T22:27:03.571Z,83.78
2023-01-12T22:29:30.757Z,84.02
2023-01-12T22:31:58.257Z,84.10
2023-01-12T22:34:26.068Z,83.93
2023-01-12T22:36:53.219Z,83.81
2023-01-12T22:39:20.526Z,84.00
2023-01-12T22:41:50.830Z,83.84
2023-01-12T22:44:19.188Z,84.04
2023-01-12T22:46:46.640Z,84.14
2023-01-12T22:49:13.956Z,84.09
2023-01-12T22:51:41.335Z,83.89
2023-01-12T22:54:08.966Z,84.23
2023-01-12T22:56:36.871Z,84.40
2023-01-12T22:59:05.532Z,84.19
2023-01-12T23:01:33.703Z,84.48
2023-01-12T23:04:01.158Z,84.66
2023-01-12T23:06:28.644Z,84.04
2023-01-12T23:08:56.120Z,84.26
2023-01-12T23:11:25.884Z,84.47
2023-01-12T23:13:55.071Z,84.58
2023-01-12T23:16:24.745Z,84.23
2023-01-12T23:18:53.052Z,84.21
2023-01-12T23:21:22.607Z,84.75
2023-01-12T23:23:52.126Z,84.61
2023-01-12T23:26:20.938Z,84.54
2023-01-12T23:28:50.371Z,84.68
2023-01-12T23:31:19.176Z,84.59
2023-01-12T23:33:48.607Z,84.28
2023-01-12T23:36:18.831Z,84.11
2023-01-12T23:38:46.345Z,84.97
2023-01-12T23:41:15.462Z,84.70
2023-01-12T23:43:43.425Z,84.90
2023-01-12T23:46:11.502Z,84.86
2023-01-12T23:48:41.164Z,84.74
2023-01-12T23:51:10.350Z,84.75
2023-01-12T23:53:40.519Z,84.97
2023-01-12T23:56:10.511Z,84.75
2023-01-12T23:58:38.404Z,85.12
